createdAt,value
2017-03-30T00:00:01.168Z,1017.33
2017-03-30T00:01:02.410Z,1017.33
2017-03-30T00:02:03.654Z,1017.35
2017-03-30T00:03:04.898Z,1017.33
2017-03-30T00:04:06.139Z,1017.35
2017-03-30T00:05:07.458Z,1017.37
2017-03-30T00:06:08.768Z,1017.38
2017-03-30T00:07:09.971Z,1017.35
2017-03-30T00:08:11.236Z,1017.37
2017-03-30T00:09:12.505Z,1017.37
2017-03-30T00:10:13.734Z,1017.34
2017-03-30T00:11:14.970Z,1017.31
2017-03-30T00:12:16.221Z,1017.3
2017-03-30T00:13:17.462Z,1017.32
2017-03-30T00:14:18.709Z,1017.31
2017-03-30T00:15:19.942Z,1017.28
2017-03-30T00:16:21.185Z,1017.32
2017-03-30T00:17:22.467Z,1017.29
2017-03-30T00:18:23.791Z,1017.31
2017-03-30T00:19:25.044Z,1017.3
2017-03-30T00:20:26.285Z,1017.3
2017-03-30T00:21:27.531Z,1017.26
2017-03-30T00:22:28.773Z,1017.27
2017-03-30T00:23:30.032Z,1017.25
2017-03-30T00:24:31.316Z,1017.25
2017-03-30T00:25:32.521Z,1017.22
2017-03-30T00:26:33.768Z,1017.25
2017-03-30T00:27:35.057Z,1017.21
2017-03-30T00:28:36.275Z,1017.19
2017-03-30T00:29:37.536Z,1017.2
2017-03-30T00:30:38.769Z,1017.21
2017-03-30T00:31:40.085Z,1017.18
2017-03-30T00:32:41.312Z,1017.21
2017-03-30T00:33:42.555Z,1017.19
2017-03-30T00:34:43.788Z,1017.2
2017-03-30T00:35:45.033Z,1017.2
2017-03-30T00:36:46.404Z,1017.23
2017-03-30T00:37:47.649Z,1017.19
2017-03-30T00:38:48.895Z,1017.19
2017-03-30T00:39:50.126Z,1017.15
2017-03-30T00:40:51.366Z,1017.15
2017-03-30T00:41:52.606Z,1017.18
2017-03-30T00:42:53.949Z,1017.14
2017-03-30T00:43:55.217Z,1017.11
2017-03-30T00:44:56.455Z,1017.13
2017-03-30T00:45:57.701Z,1017.11
2017-03-30T00:46:58.962Z,1017.12
2017-03-30T00:48:00.319Z,1017.14
2017-03-30T00:49:01.563Z,1017.1
2017-03-30T00:50:02.799Z,1017.1
2017-03-30T00:51:04.096Z,1017.14
2017-03-30T00:52:05.355Z,1017.16
2017-03-30T00:53:06.604Z,1017.15
2017-03-30T00:54:07.838Z,1017.15
2017-03-30T00:55:09.084Z,1017.13
2017-03-30T00:56:10.351Z,1017.13
2017-03-30T00:57:11.581Z,1017.13
2017-03-30T00:58:12.823Z,1017.11
2017-03-30T00:59:14.062Z,1017.12
2017-03-30T01:00:15.350Z,1017.13
2017-03-30T01:01:16.633Z,1017.11
2017-03-30T01:02:17.892Z,1017.09
2017-03-30T01:03:19.221Z,1017.12
2017-03-30T01:04:20.464Z,1017.05
2017-03-30T01:05:21.725Z,1017.08
2017-03-30T01:06:22.943Z,1017.09
2017-03-30T01:07:24.187Z,1017.11
2017-03-30T01:08:25.435Z,1017.09
2017-03-30T01:09:26.663Z,1017.12
2017-03-30T01:10:28.003Z,1017.1
2017-03-30T01:11:29.244Z,1017.11
2017-03-30T01:12:30.497Z,1017.1
2017-03-30T01:13:31.706Z,1017.06
2017-03-30T01:14:32.949Z,1017.06
2017-03-30T01:15:34.348Z,1017.05
2017-03-30T01:16:35.575Z,1017.04
2017-03-30T01:17:36.815Z,1017.05
2017-03-30T01:18:38.081Z,1017.04
2017-03-30T01:19:39.326Z,1017.07
2017-03-30T01:20:40.582Z,1017.04
2017-03-30T01:21:41.811Z,1017.06
2017-03-30T01:22:43.049Z,1017.04
2017-03-30T01:23:44.313Z,1017.06
2017-03-30T01:24:45.553Z,1017.07
2017-03-30T01:25:46.793Z,1017.07
2017-03-30T01:26:48.033Z,1017.05
2017-03-30T01:27:49.278Z,1017.04
2017-03-30T01:28:50.521Z,1017.01
2017-03-30T01:29:51.904Z,1017.04
2017-03-30T01:30:53.138Z,1017.05
2017-03-30T01:31:54.392Z,1017.03
2017-03-30T01:32:55.730Z,1017.04
2017-03-30T01:33:56.942Z,1017.04
2017-03-30T01:34:58.184Z,1017.06
2017-03-30T01:35:59.422Z,1017.05
2017-03-30T01:37:00.661Z,1017.08
2017-03-30T01:38:01.895Z,1017.05
2017-03-30T01:39:03.136Z,1017.02
2017-03-30T01:40:04.374Z,1017.08
2017-03-30T01:41:05.692Z,1017.11
2017-03-30T01:42:07.027Z,1017.1
2017-03-30T01:43:08.261Z,1017.09
2017-03-30T01:44:09.502Z,1017.07
2017-03-30T01:45:10.802Z,1017.09
2017-03-30T01:46:12.118Z,1017.06
2017-03-30T01:47:13.356Z,1017.07
2017-03-30T01:48:14.601Z,1017.08
2017-03-30T01:49:15.847Z,1017.01
2017-03-30T01:50:17.114Z,1017.05
2017-03-30T01:51:18.449Z,1017.04
2017-03-30T01:52:19.696Z,1017.03
2017-03-30T01:53:20.966Z,1017.02
2017-03-30T01:54:22.237Z,1017.02
2017-03-30T01:55:23.455Z,1017.02
2017-03-30T01:56:24.702Z,1017.01
2017-03-30T01:57:25.941Z,1017.03
2017-03-30T01:58:27.190Z,1017.04
2017-03-30T01:59:28.441Z,1017.05
2017-03-30T02:00:29.715Z,1017.05
2017-03-30T02:01:30.942Z,1017.04
2017-03-30T02:02:32.187Z,1017.03
2017-03-30T02:03:33.446Z,1017.09
2017-03-30T02:04:34.676Z,1017.08
2017-03-30T02:05:36.003Z,1017.11
2017-03-30T02:06:37.308Z,1017.11
2017-03-30T02:07:38.570Z,1017.1
2017-03-30T02:08:39.823Z,1017.1
2017-03-30T02:09:41.054Z,1017.13
2017-03-30T02:10:42.319Z,1017.09
2017-03-30T02:11:43.557Z,1017.11
2017-03-30T02:12:44.791Z,1017.06
2017-03-30T02:13:46.055Z,1017.12
2017-03-30T02:14:47.307Z,1017.14
2017-03-30T02:15:48.564Z,1017.14
2017-03-30T02:16:49.805Z,1017.17
2017-03-30T02:17:51.063Z,1017.15
2017-03-30T02:18:52.361Z,1017.15
2017-03-30T02:19:53.625Z,1017.19
2017-03-30T02:20:54.885Z,1017.17
2017-03-30T02:21:56.132Z,1017.22
2017-03-30T02:22:57.367Z,1017.18
2017-03-30T02:23:58.748Z,1017.17
2017-03-30T02:25:00.009Z,1017.21
2017-03-30T02:26:01.276Z,1017.21
2017-03-30T02:27:02.527Z,1017.19
2017-03-30T02:28:03.764Z,1017.15
2017-03-30T02:29:05.026Z,1017.19
2017-03-30T02:30:06.282Z,1017.2
2017-03-30T02:31:07.527Z,1017.21
2017-03-30T02:32:08.772Z,1017.16
2017-03-30T02:33:10.019Z,1017.17
2017-03-30T02:34:11.267Z,1017.21
2017-03-30T02:35:12.503Z,1017.18
2017-03-30T02:36:13.756Z,1017.18
2017-03-30T02:37:14.979Z,1017.18
2017-03-30T02:38:16.227Z,1017.19
2017-03-30T02:39:17.475Z,1017.18
2017-03-30T02:40:18.729Z,1017.16
2017-03-30T02:41:19.963Z,1017.18
2017-03-30T02:42:21.202Z,1017.15
2017-03-30T02:43:22.455Z,1017.14
2017-03-30T02:44:23.775Z,1017.17
2017-03-30T02:45:25.002Z,1017.17
2017-03-30T02:46:26.404Z,1017.18
2017-03-30T02:47:27.648Z,1017.19
2017-03-30T02:48:28.894Z,1017.2
2017-03-30T02:49:30.268Z,1017.18
2017-03-30T02:50:31.582Z,1017.15
2017-03-30T02:51:32.944Z,1017.17
2017-03-30T02:52:34.183Z,1017.19
2017-03-30T02:53:35.402Z,1017.21
2017-03-30T02:54:36.651Z,1017.23
2017-03-30T02:55:37.949Z,1017.21
2017-03-30T02:56:39.307Z,1017.23
2017-03-30T02:57:40.538Z,1017.25
2017-03-30T02:58:41.811Z,1017.26
2017-03-30T02:59:43.052Z,1017.26
2017-03-30T03:00:44.307Z,1017.26
2017-03-30T03:01:45.550Z,1017.23
2017-03-30T03:02:46.788Z,1017.25
2017-03-30T03:03:48.037Z,1017.26
2017-03-30T03:04:49.339Z,1017.26
2017-03-30T03:05:50.584Z,1017.29
2017-03-30T03:06:51.825Z,1017.24
2017-03-30T03:07:53.066Z,1017.26
2017-03-30T03:08:54.309Z,1017.23
2017-03-30T03:09:55.585Z,1017.23
2017-03-30T03:10:56.836Z,1017.19
2017-03-30T03:11:58.082Z,1017.22
2017-03-30T03:12:59.315Z,1017.21
2017-03-30T03:14:00.576Z,1017.19
2017-03-30T03:15:01.835Z,1017.24
2017-03-30T03:16:03.088Z,1017.21
2017-03-30T03:17:04.331Z,1017.19
2017-03-30T03:18:05.647Z,1017.2
2017-03-30T03:19:06.865Z,1017.22
2017-03-30T03:20:08.127Z,1017.18
2017-03-30T03:21:09.372Z,1017.21
2017-03-30T03:22:10.621Z,1017.22
2017-03-30T03:23:11.854Z,1017.24
2017-03-30T03:24:13.148Z,1017.25
2017-03-30T03:25:14.364Z,1017.22
2017-03-30T03:26:15.631Z,1017.21
2017-03-30T03:27:16.880Z,1017.22
2017-03-30T03:28:18.091Z,1017.23
2017-03-30T03:29:19.348Z,1017.21
2017-03-30T03:30:20.819Z,1017.26
2017-03-30T03:31:22.073Z,1017.25
2017-03-30T03:32:23.319Z,1017.23
2017-03-30T03:33:24.556Z,1017.21
2017-03-30T03:34:25.927Z,1017.2
2017-03-30T03:35:27.242Z,1017.12
2017-03-30T03:36:28.478Z,1017.19
2017-03-30T03:37:29.723Z,1017.2
2017-03-30T03:38:30.988Z,1017.18
2017-03-30T03:39:32.278Z,1017.18
2017-03-30T03:40:33.562Z,1017.18
2017-03-30T03:41:34.776Z,1017.17
2017-03-30T03:42:36.015Z,1017.2
2017-03-30T03:43:37.267Z,1017.18
2017-03-30T03:44:38.495Z,1017.23
2017-03-30T03:45:39.763Z,1017.18
2017-03-30T03:46:41.033Z,1017.2
2017-03-30T03:47:42.281Z,1017.21
2017-03-30T03:48:43.521Z,1017.22
2017-03-30T03:49:44.748Z,1017.2
2017-03-30T03:50:45.998Z,1017.22
2017-03-30T03:51:47.228Z,1017.24
2017-03-30T03:52:48.475Z,1017.22
2017-03-30T03:53:49.770Z,1017.24
2017-03-30T03:54:51.042Z,1017.2
2017-03-30T03:55:52.264Z,1017.22
2017-03-30T03:56:53.516Z,1017.22
2017-03-30T03:57:54.731Z,1017.23
2017-03-30T03:58:56.060Z,1017.22
2017-03-30T03:59:57.335Z,1017.21
2017-03-30T04:00:58.540Z,1017.19
2017-03-30T04:01:59.794Z,1017.2
2017-03-30T04:03:01.024Z,1017.21
2017-03-30T04:04:02.305Z,1017.19
2017-03-30T04:05:03.615Z,1017.16
2017-03-30T04:06:04.865Z,1017.22
2017-03-30T04:07:06.116Z,1017.21
2017-03-30T04:08:07.356Z,1017.2
2017-03-30T04:09:08.599Z,1017.21
2017-03-30T04:10:09.838Z,1017.2
2017-03-30T04:11:11.100Z,1017.22
2017-03-30T04:12:12.379Z,1017.2
2017-03-30T04:13:13.616Z,1017.21
2017-03-30T04:14:14.857Z,1017.18
2017-03-30T04:15:16.136Z,1017.18
2017-03-30T04:16:17.331Z,1017.22
2017-03-30T04:17:18.592Z,1017.22
2017-03-30T04:18:19.833Z,1017.2
2017-03-30T04:19:21.276Z,1017.19
2017-03-30T04:20:22.520Z,1017.21
2017-03-30T04:21:23.774Z,1017.22
2017-03-30T04:22:25.003Z,1017.19
2017-03-30T04:23:26.260Z,1017.19
2017-03-30T04:24:27.514Z,1017.18
2017-03-30T04:25:28.735Z,1017.16
2017-03-30T04:26:30.105Z,1017.2
2017-03-30T04:27:31.471Z,1017.18
2017-03-30T04:28:32.686Z,1017.16
2017-03-30T04:29:33.941Z,1017.18
2017-03-30T04:30:35.210Z,1017.17
2017-03-30T04:31:36.431Z,1017.16
2017-03-30T04:32:37.744Z,1017.15
2017-03-30T04:33:38.984Z,1017.15
2017-03-30T04:34:40.219Z,1017.14
2017-03-30T04:35:41.474Z,1017.15
2017-03-30T04:36:42.810Z,1017.17
2017-03-30T04:37:44.089Z,1017.15
2017-03-30T04:38:45.354Z,1017.13
2017-03-30T04:39:46.623Z,1017.17
2017-03-30T04:40:47.854Z,1017.13
2017-03-30T04:41:49.064Z,1017.13
2017-03-30T04:42:50.414Z,1017.15
2017-03-30T04:43:51.626Z,1017.14
2017-03-30T04:44:52.975Z,1017.13
2017-03-30T04:45:54.224Z,1017.12
2017-03-30T04:46:55.462Z,1017.13
2017-03-30T04:47:56.764Z,1017.09
2017-03-30T04:48:57.989Z,1017.13
2017-03-30T04:49:59.401Z,1017.13
2017-03-30T04:51:00.586Z,1017.12
2017-03-30T04:52:01.831Z,1017.12
2017-03-30T04:53:03.072Z,1017.11
2017-03-30T04:54:04.372Z,1017.12
2017-03-30T04:55:05.605Z,1017.1
2017-03-30T04:56:06.845Z,1017.09
2017-03-30T04:57:08.119Z,1017.09
2017-03-30T04:58:09.361Z,1017.11
2017-03-30T04:59:10.602Z,1017.12
2017-03-30T05:00:11.847Z,1017.12
2017-03-30T05:01:13.096Z,1017.09
2017-03-30T05:02:14.339Z,1017.08
2017-03-30T05:03:15.701Z,1017.09
2017-03-30T05:04:16.974Z,1017.04
2017-03-30T05:05:18.181Z,1017.07
2017-03-30T05:06:19.421Z,1017.07
2017-03-30T05:07:20.688Z,1017.06
2017-03-30T05:08:21.969Z,1017.03
2017-03-30T05:09:23.192Z,1017.05
2017-03-30T05:10:24.428Z,1017.03
2017-03-30T05:11:25.667Z,1017.02
2017-03-30T05:12:26.917Z,1017.04
2017-03-30T05:13:28.156Z,1017.01
2017-03-30T05:14:29.407Z,1017.02
2017-03-30T05:15:30.663Z,1017.03
2017-03-30T05:16:32.020Z,1017.01
2017-03-30T05:17:33.265Z,1017.03
2017-03-30T05:18:34.512Z,1017.02
2017-03-30T05:19:35.773Z,1017
2017-03-30T05:20:37.012Z,1017.02
2017-03-30T05:21:38.234Z,1017.03
2017-03-30T05:22:39.502Z,1016.98
2017-03-30T05:23:40.726Z,1017.01
2017-03-30T05:24:42.007Z,1017.02
2017-03-30T05:25:43.255Z,1017.01
2017-03-30T05:26:44.497Z,1017.03
2017-03-30T05:27:45.796Z,1016.99
2017-03-30T05:28:47.060Z,1017.02
2017-03-30T05:29:48.358Z,1017.02
2017-03-30T05:30:49.602Z,1017.02
2017-03-30T05:31:50.850Z,1017.05
2017-03-30T05:32:52.122Z,1017.03
2017-03-30T05:33:53.374Z,1017.02
2017-03-30T05:34:54.610Z,1017.04
2017-03-30T05:35:55.868Z,1017.06
2017-03-30T05:36:57.121Z,1017.06
2017-03-30T05:37:58.376Z,1017.05
2017-03-30T05:38:59.605Z,1017.05
2017-03-30T05:40:00.855Z,1017.03
2017-03-30T05:41:02.125Z,1017.04
2017-03-30T05:42:03.451Z,1017.04
2017-03-30T05:43:04.692Z,1017.06
2017-03-30T05:44:05.911Z,1017.05
2017-03-30T05:45:07.153Z,1017.07
2017-03-30T05:46:08.405Z,1017.05
2017-03-30T05:47:09.726Z,1017.08
2017-03-30T05:48:10.982Z,1017.07
2017-03-30T05:49:12.197Z,1017.09
2017-03-30T05:50:13.438Z,1017.12
2017-03-30T05:51:14.693Z,1017.08
2017-03-30T05:52:15.926Z,1017.1
2017-03-30T05:53:17.172Z,1017.13
2017-03-30T05:54:18.424Z,1017.1
2017-03-30T05:55:19.669Z,1017.12
2017-03-30T05:56:20.933Z,1017.16
2017-03-30T05:57:22.175Z,1017.17
2017-03-30T05:58:23.426Z,1017.15
2017-03-30T05:59:24.789Z,1017.2
2017-03-30T06:00:26.068Z,1017.23
2017-03-30T06:01:27.328Z,1017.23
2017-03-30T06:02:28.603Z,1017.2
2017-03-30T06:03:29.814Z,1017.2
2017-03-30T06:04:31.064Z,1017.22
2017-03-30T06:05:32.334Z,1017.19
2017-03-30T06:06:33.670Z,1017.2
2017-03-30T06:07:34.926Z,1017.23
2017-03-30T06:08:36.163Z,1017.21
2017-03-30T06:09:37.412Z,1017.2
2017-03-30T06:10:38.683Z,1017.25
2017-03-30T06:11:39.917Z,1017.22
2017-03-30T06:12:41.158Z,1017.24
2017-03-30T06:13:42.430Z,1017.23
2017-03-30T06:14:43.667Z,1017.22
2017-03-30T06:15:44.932Z,1017.2
2017-03-30T06:16:46.155Z,1017.2
2017-03-30T06:17:47.410Z,1017.27
2017-03-30T06:18:48.670Z,1017.27
2017-03-30T06:19:50.062Z,1017.27
2017-03-30T06:20:51.404Z,1017.29
2017-03-30T06:21:52.630Z,1017.29
2017-03-30T06:22:53.891Z,1017.32
2017-03-30T06:23:55.156Z,1017.32
2017-03-30T06:24:56.485Z,1017.37
2017-03-30T06:25:57.778Z,1017.3
2017-03-30T06:26:59.026Z,1017.33
2017-03-30T06:28:00.322Z,1017.34
2017-03-30T06:29:01.527Z,1017.32
2017-03-30T06:30:02.787Z,1017.35
2017-03-30T06:31:04.110Z,1017.32
2017-03-30T06:32:05.370Z,1017.34
2017-03-30T06:33:06.591Z,1017.32
2017-03-30T06:34:07.832Z,1017.33
2017-03-30T06:35:09.080Z,1017.34
2017-03-30T06:36:10.319Z,1017.34
2017-03-30T06:37:11.595Z,1017.32
2017-03-30T06:38:12.868Z,1017.33
2017-03-30T06:39:14.097Z,1017.32
2017-03-30T06:40:15.385Z,1017.35
2017-03-30T06:41:16.623Z,1017.28
2017-03-30T06:42:17.883Z,1017.29
2017-03-30T06:43:19.149Z,1017.33
2017-03-30T06:44:20.390Z,1017.28
2017-03-30T06:45:21.654Z,1017.31
2017-03-30T06:46:22.898Z,1017.34
2017-03-30T06:47:24.146Z,1017.35
2017-03-30T06:48:25.409Z,1017.33
2017-03-30T06:49:26.674Z,1017.33
2017-03-30T06:50:28.021Z,1017.37
2017-03-30T06:51:29.251Z,1017.34
2017-03-30T06:52:30.492Z,1017.37
2017-03-30T06:53:31.827Z,1017.33
2017-03-30T06:54:33.083Z,1017.38
2017-03-30T06:55:34.341Z,1017.37
2017-03-30T06:56:35.569Z,1017.4
2017-03-30T06:57:36.810Z,1017.41
2017-03-30T06:58:38.060Z,1017.37
2017-03-30T06:59:39.303Z,1017.37
2017-03-30T07:00:40.551Z,1017.35
2017-03-30T07:01:41.806Z,1017.33
2017-03-30T07:02:43.080Z,1017.31
2017-03-30T07:03:44.314Z,1017.3
2017-03-30T07:04:45.553Z,1017.31
2017-03-30T07:05:46.793Z,1017.35
2017-03-30T07:06:48.045Z,1017.32
2017-03-30T07:07:49.280Z,1017.36
2017-03-30T07:08:50.536Z,1017.38
2017-03-30T07:09:51.870Z,1017.39
2017-03-30T07:10:53.123Z,1017.42
2017-03-30T07:11:54.369Z,1017.41
2017-03-30T07:12:55.615Z,1017.45
2017-03-30T07:13:56.864Z,1017.4
2017-03-30T07:14:58.272Z,1017.4
2017-03-30T07:15:59.532Z,1017.38
2017-03-30T07:17:00.775Z,1017.39
2017-03-30T07:18:02.059Z,1017.37
2017-03-30T07:19:03.287Z,1017.43
2017-03-30T07:20:04.532Z,1017.35
2017-03-30T07:21:05.775Z,1017.38
2017-03-30T07:22:07.026Z,1017.29
2017-03-30T07:23:08.331Z,1017.24
2017-03-30T07:24:09.588Z,1017.3
2017-03-30T07:25:10.826Z,1017.28
2017-03-30T07:26:12.066Z,1017.35
2017-03-30T07:27:13.334Z,1017.39
2017-03-30T07:28:14.597Z,1017.37
2017-03-30T07:29:15.872Z,1017.36
2017-03-30T07:30:17.116Z,1017.4
2017-03-30T07:31:18.362Z,1017.41
2017-03-30T07:32:19.603Z,1017.42
2017-03-30T07:33:20.900Z,1017.45
2017-03-30T07:34:22.247Z,1017.48
2017-03-30T07:35:23.532Z,1017.46
2017-03-30T07:36:24.806Z,1017.5
2017-03-30T07:37:26.042Z,1017.63
2017-03-30T07:38:27.266Z,1017.58
2017-03-30T07:39:28.627Z,1017.58
2017-03-30T07:40:29.937Z,1017.39
2017-03-30T07:41:31.233Z,1017.41
2017-03-30T07:42:32.498Z,1017.37
2017-03-30T07:43:33.743Z,1017.39
2017-03-30T07:44:34.999Z,1017.36
2017-03-30T07:45:36.242Z,1017.4
2017-03-30T07:46:37.515Z,1017.38
2017-03-30T07:47:38.756Z,1017.39
2017-03-30T07:48:40.033Z,1017.4
2017-03-30T07:49:41.262Z,1017.38
2017-03-30T07:50:42.515Z,1017.44
2017-03-30T07:51:43.781Z,1017.42
2017-03-30T07:52:45.034Z,1017.33
2017-03-30T07:53:46.322Z,1017.4
2017-03-30T07:54:47.572Z,1017.5
2017-03-30T07:55:48.823Z,1017.44
2017-03-30T07:56:50.059Z,1017.44
2017-03-30T07:57:51.326Z,1017.43
2017-03-30T07:58:52.571Z,1017.51
2017-03-30T07:59:53.877Z,1017.43
2017-03-30T08:00:55.195Z,1017.45
2017-03-30T08:01:56.431Z,1017.49
2017-03-30T08:02:57.686Z,1017.45
2017-03-30T08:03:59.029Z,1017.49
2017-03-30T08:05:00.291Z,1017.48
2017-03-30T08:06:01.553Z,1017.44
2017-03-30T08:07:02.824Z,1017.49
2017-03-30T08:08:04.079Z,1017.5
2017-03-30T08:09:05.348Z,1017.51
2017-03-30T08:10:06.637Z,1017.46
2017-03-30T08:11:07.902Z,1017.78
2017-03-30T08:12:09.197Z,1017.62
2017-03-30T08:13:10.443Z,1017.86
2017-03-30T08:14:11.772Z,1017.82
2017-03-30T08:15:12.987Z,1017.54
2017-03-30T08:16:14.276Z,1017.76
2017-03-30T08:17:15.615Z,1017.82
2017-03-30T08:18:16.831Z,1017.8
2017-03-30T08:19:18.088Z,1017.76
2017-03-30T08:20:19.345Z,1017.87
2017-03-30T08:21:20.599Z,1017.93
2017-03-30T08:22:21.843Z,1017.87
2017-03-30T08:23:23.106Z,1017.66
2017-03-30T08:24:24.357Z,1017.62
2017-03-30T08:25:25.674Z,1017.57
2017-03-30T08:26:26.915Z,1017.5
2017-03-30T08:27:28.162Z,1017.57
2017-03-30T08:28:29.411Z,1017.92
2017-03-30T08:29:30.662Z,1017.89
2017-03-30T08:30:32.062Z,1017.89
2017-03-30T08:31:33.409Z,1017.94
2017-03-30T08:32:34.688Z,1017.87
2017-03-30T08:33:35.980Z,1017.83
2017-03-30T08:34:37.216Z,1017.86
2017-03-30T08:35:38.538Z,1017.84
2017-03-30T08:36:39.813Z,1017.85
2017-03-30T08:37:41.075Z,1017.84
2017-03-30T08:38:42.326Z,1017.81
2017-03-30T08:39:43.587Z,1017.84
2017-03-30T08:40:44.841Z,1017.85
2017-03-30T08:41:46.219Z,1017.83
2017-03-30T08:42:47.438Z,1017.9
2017-03-30T08:43:48.681Z,1017.81
2017-03-30T08:44:49.982Z,1017.84
2017-03-30T08:45:51.229Z,1017.84
2017-03-30T08:46:52.500Z,1017.9
2017-03-30T08:47:53.785Z,1017.81
2017-03-30T08:48:55.046Z,1017.97
2017-03-30T08:49:56.297Z,1017.89
2017-03-30T08:50:57.564Z,1017.83
2017-03-30T08:51:58.795Z,1017.67
2017-03-30T08:53:00.052Z,1017.66
2017-03-30T08:54:01.341Z,1017.71
2017-03-30T08:55:02.565Z,1017.79
2017-03-30T08:56:03.914Z,1017.75
2017-03-30T08:57:05.174Z,1017.68
2017-03-30T08:58:06.429Z,1017.64
2017-03-30T08:59:07.720Z,1017.67
2017-03-30T09:00:08.939Z,1017.71
2017-03-30T09:01:10.197Z,1017.68
2017-03-30T09:02:11.435Z,1017.59
2017-03-30T09:03:12.705Z,1017.55
2017-03-30T09:04:13.951Z,1017.54
2017-03-30T09:05:15.236Z,1017.61
2017-03-30T09:06:16.487Z,1017.58
2017-03-30T09:07:17.732Z,1017.7
2017-03-30T09:08:18.989Z,1017.81
2017-03-30T09:09:20.238Z,1017.84
2017-03-30T09:10:21.487Z,1017.99
2017-03-30T09:11:22.736Z,1017.92
2017-03-30T09:12:24.014Z,1017.75
2017-03-30T09:13:25.241Z,1017.83
2017-03-30T09:14:26.551Z,1017.92
2017-03-30T09:15:27.816Z,1017.67
2017-03-30T09:16:29.050Z,1017.99
2017-03-30T09:17:30.302Z,1017.61
2017-03-30T09:18:31.553Z,1017.62
2017-03-30T09:19:32.797Z,1017.67
2017-03-30T09:20:34.171Z,1017.93
2017-03-30T09:21:35.429Z,1017.94
2017-03-30T09:22:36.682Z,1017.93
2017-03-30T09:23:37.981Z,1017.98
2017-03-30T09:24:39.253Z,1017.94
2017-03-30T09:25:40.604Z,1017.83
2017-03-30T09:26:41.887Z,1017.77
2017-03-30T09:27:43.161Z,1017.66
2017-03-30T09:28:44.415Z,1017.73
2017-03-30T09:29:45.670Z,1017.55
2017-03-30T09:30:46.945Z,1018.03
2017-03-30T09:31:48.340Z,1017.45
2017-03-30T09:32:49.593Z,1017.46
2017-03-30T09:33:50.860Z,1017.59
2017-03-30T09:34:52.116Z,1018
2017-03-30T09:35:53.355Z,1018.04
2017-03-30T09:36:54.636Z,1018.05
2017-03-30T09:37:55.971Z,1018.09
2017-03-30T09:38:57.382Z,1017.7
2017-03-30T09:39:58.643Z,1017.7
2017-03-30T09:40:59.888Z,1017.59
2017-03-30T09:42:01.175Z,1017.7
2017-03-30T09:43:02.464Z,1017.7
2017-03-30T09:44:03.824Z,1017.7
2017-03-30T09:45:05.072Z,1017.65
2017-03-30T09:46:06.317Z,1017.49
2017-03-30T09:47:07.586Z,1017.38
2017-03-30T09:48:08.839Z,1017.37
2017-03-30T09:49:10.163Z,1017.37
2017-03-30T09:50:11.494Z,1017.35
2017-03-30T09:51:12.706Z,1017.28
2017-03-30T09:52:13.960Z,1017.32
2017-03-30T09:53:15.208Z,1017.32
2017-03-30T09:54:16.463Z,1017.27
2017-03-30T09:55:17.718Z,1017.41
2017-03-30T09:56:18.986Z,1017.55
2017-03-30T09:57:20.234Z,1017.43
2017-03-30T09:58:21.490Z,1017.37
2017-03-30T09:59:22.757Z,1017.55
2017-03-30T10:00:24.015Z,1017.51
2017-03-30T10:01:25.290Z,1017.47
2017-03-30T10:02:26.540Z,1017.5
2017-03-30T10:03:27.803Z,1017.31
2017-03-30T10:04:29.042Z,1017.26
2017-03-30T10:05:30.290Z,1017.65
2017-03-30T10:06:31.537Z,1017.53
2017-03-30T10:07:32.863Z,1017.35
2017-03-30T10:08:34.126Z,1017.56
2017-03-30T10:09:35.405Z,1017.5
2017-03-30T10:10:36.658Z,1017.56
2017-03-30T10:11:37.915Z,1017.46
2017-03-30T10:12:39.164Z,1017.45
2017-03-30T10:13:40.624Z,1017.48
2017-03-30T10:14:41.841Z,1017.54
2017-03-30T10:15:43.123Z,1017.49
2017-03-30T10:16:44.380Z,1017.47
2017-03-30T10:17:45.632Z,1017.48
2017-03-30T10:18:46.927Z,1017.47
2017-03-30T10:19:48.247Z,1017.48
2017-03-30T10:20:49.526Z,1017.49
2017-03-30T10:21:50.773Z,1017.47
2017-03-30T10:22:52.007Z,1017.48
2017-03-30T10:23:53.271Z,1017.41
2017-03-30T10:24:54.537Z,1017.38
2017-03-30T10:25:55.857Z,1017.28
2017-03-30T10:26:57.115Z,1017.22
2017-03-30T10:27:58.385Z,1017.25
2017-03-30T10:28:59.646Z,1017.24
2017-03-30T10:30:00.909Z,1017.24
2017-03-30T10:31:02.188Z,1017.21
2017-03-30T10:32:03.455Z,1017.17
2017-03-30T10:33:04.734Z,1017.19
2017-03-30T10:34:05.997Z,1017.13
2017-03-30T10:35:07.272Z,1017.07
2017-03-30T10:36:08.517Z,1017.07
2017-03-30T10:37:09.911Z,1017.02
2017-03-30T10:38:11.061Z,1016.96
2017-03-30T10:39:12.360Z,1017
2017-03-30T10:40:13.683Z,1016.96
2017-03-30T10:41:14.940Z,1016.98
2017-03-30T10:42:16.185Z,1016.93
2017-03-30T10:43:17.444Z,1016.95
2017-03-30T10:44:18.688Z,1016.84
2017-03-30T10:45:19.971Z,1016.88
2017-03-30T10:46:21.220Z,1016.81
2017-03-30T10:47:22.487Z,1016.76
2017-03-30T10:48:23.741Z,1016.83
2017-03-30T10:49:25.132Z,1016.78
2017-03-30T10:50:26.564Z,1016.75
2017-03-30T10:51:27.872Z,1016.75
2017-03-30T10:52:29.120Z,1016.73
2017-03-30T10:53:30.385Z,1016.77
2017-03-30T10:54:31.609Z,1016.78
2017-03-30T10:55:32.865Z,1016.79
2017-03-30T10:56:34.226Z,1016.76
2017-03-30T10:57:35.483Z,1016.77
2017-03-30T10:58:36.738Z,1016.77
2017-03-30T10:59:37.986Z,1016.69
2017-03-30T11:00:39.246Z,1016.72
2017-03-30T11:01:40.558Z,1016.77
2017-03-30T11:02:41.784Z,1016.67
2017-03-30T11:03:43.054Z,1016.7
2017-03-30T11:04:44.276Z,1016.68
2017-03-30T11:05:45.541Z,1016.7
2017-03-30T11:06:46.858Z,1016.73
2017-03-30T11:07:48.158Z,1016.7
2017-03-30T11:08:49.408Z,1016.72
2017-03-30T11:09:50.660Z,1016.7
2017-03-30T11:10:51.992Z,1016.68
2017-03-30T11:11:53.239Z,1016.73
2017-03-30T11:12:54.502Z,1016.71
2017-03-30T11:13:55.742Z,1016.69
2017-03-30T11:14:57.039Z,1016.74
2017-03-30T11:15:58.265Z,1016.71
2017-03-30T11:16:59.550Z,1016.7
2017-03-30T11:18:00.788Z,1016.73
2017-03-30T11:19:02.051Z,1016.65
2017-03-30T11:20:03.325Z,1016.63
2017-03-30T11:21:04.604Z,1016.64
2017-03-30T11:22:05.956Z,1016.66
2017-03-30T11:23:07.202Z,1016.61
2017-03-30T11:24:08.450Z,1016.62
2017-03-30T11:25:09.703Z,1016.65
2017-03-30T11:26:10.986Z,1016.61
2017-03-30T11:27:12.375Z,1016.59
2017-03-30T11:28:13.642Z,1016.6
2017-03-30T11:29:14.897Z,1016.63
2017-03-30T11:30:16.154Z,1016.61
2017-03-30T11:31:17.438Z,1016.57
2017-03-30T11:32:18.775Z,1016.67
2017-03-30T11:33:20.025Z,1016.61
2017-03-30T11:34:21.272Z,1016.59
2017-03-30T11:35:22.521Z,1016.58
2017-03-30T11:36:23.763Z,1016.54
2017-03-30T11:37:25.020Z,1016.52
2017-03-30T11:38:26.321Z,1016.49
2017-03-30T11:39:27.593Z,1016.5
2017-03-30T11:40:28.858Z,1016.52
2017-03-30T11:41:30.111Z,1016.45
2017-03-30T11:42:31.357Z,1016.45
2017-03-30T11:43:32.615Z,1016.45
2017-03-30T11:44:33.943Z,1016.51
2017-03-30T11:45:35.133Z,1016.43
2017-03-30T11:46:36.519Z,1016.43
2017-03-30T11:47:37.798Z,1016.5
2017-03-30T11:48:39.045Z,1016.47
2017-03-30T11:49:40.425Z,1016.43
2017-03-30T11:50:41.699Z,1016.42
2017-03-30T11:51:42.958Z,1016.46
2017-03-30T11:52:44.187Z,1016.45
2017-03-30T11:53:45.440Z,1016.44
2017-03-30T11:54:46.699Z,1016.44
2017-03-30T11:55:47.970Z,1016.47
2017-03-30T11:56:49.232Z,1016.4
2017-03-30T11:57:50.478Z,1016.35
2017-03-30T11:58:51.731Z,1016.4
2017-03-30T11:59:52.982Z,1016.34
2017-03-30T12:00:54.236Z,1016.33
2017-03-30T12:01:55.468Z,1016.3
2017-03-30T12:02:56.787Z,1016.29
2017-03-30T12:03:58.036Z,1016.3
2017-03-30T12:04:59.286Z,1016.24
2017-03-30T12:06:00.537Z,1016.31
2017-03-30T12:07:01.776Z,1016.26
2017-03-30T12:08:03.023Z,1016.28
2017-03-30T12:09:04.285Z,1016.25
2017-03-30T12:10:05.550Z,1016.22
2017-03-30T12:11:06.792Z,1016.29
2017-03-30T12:12:08.043Z,1016.21
2017-03-30T12:13:09.299Z,1016.24
2017-03-30T12:14:10.575Z,1016.2
2017-03-30T12:15:11.815Z,1016.19
2017-03-30T12:16:13.066Z,1016.16
2017-03-30T12:17:14.344Z,1016.12
2017-03-30T12:18:15.631Z,1016.18
2017-03-30T12:19:17.053Z,1016.22
2017-03-30T12:20:18.302Z,1016.17
2017-03-30T12:21:19.573Z,1016.12
2017-03-30T12:22:20.810Z,1016.13
2017-03-30T12:23:22.087Z,1016.12